createdAt,value
2019-02-12T00:02:03.933Z,51.73
2019-02-12T00:04:45.570Z,46.03
2019-02-12T00:07:25.388Z,40.97
2019-02-12T00:10:06.883Z,40.40
2019-02-12T00:12:48.357Z,38.23
2019-02-12T00:15:29.924Z,35.43
2019-02-12T00:18:11.202Z,36.47
2019-02-12T00:20:52.682Z,40.77
2019-02-12T00:23:33.122Z,42.03
2019-02-12T00:26:13.840Z,43.90
2019-02-12T00:28:55.260Z,43.33
2019-02-12T00:31:36.480Z,47.07
2019-02-12T00:34:17.529Z,47.33
2019-02-12T00:36:58.756Z,45.00
2019-02-12T00:39:40.005Z,44.60
2019-02-12T00:42:20.711Z,43.73
2019-02-12T00:45:02.394Z,45.20
2019-02-12T00:47:43.208Z,45.50
2019-02-12T00:50:24.264Z,44.33
2019-02-12T00:53:05.878Z,46.47
2019-02-12T00:55:47.299Z,45.10
2019-02-12T00:58:28.688Z,47.57
2019-02-12T01:01:09.864Z,48.43
2019-02-12T01:03:51.274Z,49.83
2019-02-12T01:06:31.003Z,49.53
2019-02-12T01:09:12.579Z,50.63
2019-02-12T01:11:54.156Z,51.80
2019-02-12T01:14:35.368Z,54.00
2019-02-12T01:17:17.014Z,53.60
2019-02-12T01:19:58.332Z,47.60
2019-02-12T01:22:39.292Z,52.57
2019-02-12T01:25:20.587Z,52.60
2019-02-12T01:28:02.033Z,51.00
2019-02-12T01:30:43.612Z,54.17
2019-02-12T01:33:24.830Z,54.83
2019-02-12T01:36:06.409Z,58.13
2019-02-12T01:38:47.988Z,55.97
2019-02-12T01:41:28.994Z,57.93
2019-02-12T01:44:10.204Z,56.30
2019-02-12T01:46:51.594Z,54.63
2019-02-12T01:49:33.020Z,55.40
2019-02-12T01:52:14.179Z,56.97
2019-02-12T01:54:55.397Z,56.03
2019-02-12T02:00:37.388Z,58.70
2019-02-12T02:03:18.943Z,53.33
2019-02-12T02:06:00.226Z,56.77
2019-02-12T02:08:41.662Z,53.80
2019-02-12T02:11:22.879Z,53.27
2019-02-12T02:14:04.325Z,52.10
2019-02-12T02:16:45.507Z,52.43
2019-02-12T02:19:26.616Z,47.83
2019-02-12T02:22:08.352Z,47.83
2019-02-12T02:24:49.856Z,44.67
2019-02-12T02:27:30.934Z,43.90
2019-02-12T02:30:12.463Z,44.53
2019-02-12T02:32:54.026Z,41.93
2019-02-12T02:35:34.737Z,42.30
2019-02-12T02:38:16.112Z,42.07
2019-02-12T02:40:57.131Z,41.00
2019-02-12T02:43:38.257Z,41.07
2019-02-12T02:46:19.574Z,40.97
2019-02-12T02:49:00.783Z,41.23
2019-02-12T02:51:41.810Z,40.63
2019-02-12T02:54:23.018Z,41.00
2019-02-12T02:57:04.276Z,39.13
2019-02-12T02:59:45.702Z,39.43
2019-02-12T03:02:26.816Z,38.00
2019-02-12T03:05:08.119Z,36.70
2019-02-12T03:07:49.298Z,36.60
2019-02-12T03:10:30.480Z,36.47
2019-02-12T03:13:12.022Z,35.90
2019-02-12T03:15:53.608Z,34.60
2019-02-12T03:18:34.586Z,34.27
2019-02-12T03:21:15.667Z,33.57
2019-02-12T03:23:57.032Z,34.33
2019-02-12T03:26:37.862Z,31.73
2019-02-12T03:29:18.939Z,32.83
2019-02-12T03:32:00.103Z,32.53
2019-02-12T03:34:41.184Z,31.27
2019-02-12T03:37:22.530Z,31.13
2019-02-12T03:40:03.497Z,33.13
2019-02-12T03:42:44.872Z,33.27
2019-02-12T03:45:26.510Z,30.23
2019-02-12T03:48:07.823Z,32.33
2019-02-12T03:50:48.911Z,33.80
2019-02-12T03:53:30.331Z,32.57
2019-02-12T03:56:11.153Z,33.07
2019-02-12T03:58:52.563Z,33.70
2019-02-12T04:01:33.319Z,35.50
2019-02-12T04:04:14.043Z,35.03
2019-02-12T04:06:54.846Z,35.17
2019-02-12T04:09:34.737Z,37.33
2019-02-12T04:12:16.277Z,35.80
2019-02-12T04:14:55.800Z,37.03
2019-02-12T04:17:36.520Z,38.03
2019-02-12T04:20:18.088Z,38.27
2019-02-12T04:22:58.871Z,39.83
2019-02-12T04:25:40.174Z,35.60
2019-02-12T04:28:22.712Z,31.47
2019-02-12T04:31:04.203Z,25.20
2019-02-12T04:33:45.209Z,32.87
2019-02-12T04:36:26.476Z,34.57
2019-02-12T04:39:06.205Z,33.87
2019-02-12T04:44:56.128Z,32.00
2019-02-12T04:47:37.656Z,32.80
2019-02-12T04:50:18.751Z,31.77
2019-02-12T04:53:00.115Z,33.13
2019-02-12T04:55:39.836Z,31.70
2019-02-12T05:01:28.587Z,32.90
2019-02-12T05:04:09.423Z,31.43
2019-02-12T05:06:50.647Z,32.23
2019-02-12T05:09:31.827Z,32.00
2019-02-12T05:12:12.524Z,32.50
2019-02-12T05:14:54.095Z,31.43
2019-02-12T05:17:35.622Z,28.90
2019-02-12T05:20:17.195Z,32.30
2019-02-12T05:22:58.424Z,32.17
2019-02-12T05:25:39.762Z,31.93
2019-02-12T05:28:20.946Z,32.10
2019-02-12T05:31:02.487Z,30.97
2019-02-12T05:33:43.873Z,32.80
2019-02-12T05:36:25.385Z,32.87
2019-02-12T05:39:06.918Z,32.70
2019-02-12T05:41:48.350Z,31.90
2019-02-12T05:44:29.738Z,30.00
2019-02-12T05:47:11.316Z,29.10
2019-02-12T05:49:52.570Z,29.50
2019-02-12T05:52:33.988Z,29.57
2019-02-12T05:55:15.585Z,27.97
2019-02-12T05:57:57.153Z,26.13
2019-02-12T06:00:38.441Z,29.77
2019-02-12T06:03:20.005Z,29.17
2019-02-12T06:05:59.898Z,30.50
2019-02-12T06:08:48.489Z,33.07
2019-02-12T06:11:28.063Z,32.70
2019-02-12T06:14:16.580Z,32.97
2019-02-12T06:16:56.169Z,37.93
2019-02-12T06:22:44.806Z,36.40
2019-02-12T06:25:26.225Z,38.10
2019-02-12T06:28:06.923Z,41.67
2019-02-12T06:30:48.202Z,37.67
2019-02-12T06:33:29.618Z,37.83
2019-02-12T06:36:10.606Z,37.53
2019-02-12T06:38:52.101Z,36.17
2019-02-12T06:41:32.845Z,37.43
2019-02-12T06:44:14.066Z,31.37
2019-02-12T06:46:55.447Z,36.37
2019-02-12T06:49:36.736Z,37.13
2019-02-12T06:52:18.107Z,35.10
2019-02-12T06:54:59.784Z,33.77
2019-02-12T06:57:41.093Z,33.37
2019-02-12T07:00:22.629Z,30.67
2019-02-12T07:03:04.202Z,39.33
2019-02-12T07:05:45.652Z,35.20
2019-02-12T07:08:26.411Z,36.33
2019-02-12T07:11:07.651Z,36.27
2019-02-12T07:13:48.900Z,36.30
2019-02-12T07:16:29.632Z,37.33
2019-02-12T07:22:15.714Z,37.37
2019-02-12T07:24:57.185Z,40.67
2019-02-12T07:27:38.543Z,36.67
2019-02-12T07:30:19.659Z,34.43
2019-02-12T07:33:01.322Z,36.57
2019-02-12T07:35:42.950Z,37.83
2019-02-12T07:38:24.079Z,36.03
2019-02-12T07:41:05.168Z,29.33
2019-02-12T07:43:46.680Z,35.30
2019-02-12T07:46:27.444Z,37.47
2019-02-12T07:49:08.416Z,37.80
2019-02-12T07:51:49.843Z,37.27
2019-02-12T07:54:34.884Z,34.67
2019-02-12T07:57:28.245Z,27.70
2019-02-12T08:00:09.489Z,24.73
2019-02-12T08:02:50.978Z,41.70
2019-02-12T08:05:31.702Z,43.00
2019-02-12T08:08:12.975Z,44.53
2019-02-12T08:10:54.263Z,45.23
2019-02-12T08:13:35.310Z,44.33
2019-02-12T08:16:16.858Z,44.47
2019-02-12T08:18:58.177Z,44.40
2019-02-12T08:45:28.241Z,42.57
2019-02-12T08:48:09.848Z,43.50
2019-02-12T08:50:51.433Z,41.73
2019-02-12T08:53:32.918Z,43.23
2019-02-12T08:56:14.507Z,39.33
2019-02-12T08:58:55.746Z,38.13
2019-02-12T09:01:37.327Z,43.83
2019-02-12T09:04:18.875Z,44.97
2019-02-12T09:07:00.275Z,45.63
2019-02-12T09:09:41.768Z,49.70
2019-02-12T09:12:22.484Z,47.70
2019-02-12T09:15:03.182Z,44.73
2019-02-12T09:17:44.590Z,46.97
2019-02-12T09:20:26.223Z,45.97
2019-02-12T09:23:07.667Z,44.87
2019-02-12T09:25:48.530Z,47.10
2019-02-12T09:28:29.460Z,50.77
2019-02-12T09:31:11.011Z,44.00
2019-02-12T09:33:52.003Z,40.93
2019-02-12T09:36:32.960Z,43.90
2019-02-12T09:39:14.486Z,44.17
2019-02-12T09:41:55.883Z,38.63
2019-02-12T09:44:55.069Z,44.37
2019-02-12T09:48:02.640Z,39.93
2019-02-12T09:50:43.950Z,39.63
2019-02-12T09:53:25.420Z,41.00
2019-02-12T09:56:06.530Z,25.57
2019-02-12T09:58:47.649Z,41.77
2019-02-12T10:01:29.119Z,43.73
2019-02-12T10:04:10.376Z,44.43
2019-02-12T10:06:51.266Z,45.43
2019-02-12T10:09:32.473Z,41.77
2019-02-12T10:12:13.700Z,32.73
2019-02-12T10:14:55.134Z,28.80
2019-02-12T10:17:35.858Z,46.37
2019-02-12T10:20:16.745Z,42.57
2019-02-12T10:22:57.765Z,47.03
2019-02-12T10:25:39.073Z,46.97
2019-02-12T10:28:20.055Z,46.63
2019-02-12T10:31:01.420Z,40.40
2019-02-12T10:33:42.813Z,44.47
2019-02-12T10:36:24.592Z,46.37
2019-02-12T10:39:05.318Z,44.63
2019-02-12T10:41:46.877Z,41.73
2019-02-12T10:44:28.127Z,42.13
2019-02-12T10:47:09.750Z,37.37
2019-02-12T10:49:50.854Z,40.90
2019-02-12T10:52:31.606Z,40.77
2019-02-12T10:55:13.012Z,39.73
2019-02-12T10:57:54.531Z,38.57
2019-02-12T11:00:35.942Z,36.03
2019-02-12T11:03:17.202Z,34.43
2019-02-12T11:05:58.568Z,37.87
2019-02-12T11:08:40.328Z,39.70
2019-02-12T11:11:21.135Z,39.87
2019-02-12T11:14:02.750Z,40.87
2019-02-12T11:16:44.244Z,29.73
2019-02-12T11:19:25.456Z,37.77
2019-02-12T11:22:05.518Z,43.00
2019-02-12T11:30:36.702Z,46.47
2019-02-12T11:33:25.399Z,41.37
2019-02-12T11:36:06.585Z,49.87
2019-02-12T11:38:48.084Z,46.63
2019-02-12T11:41:29.464Z,47.53
2019-02-12T11:44:10.814Z,46.90
2019-02-12T11:46:52.266Z,38.97
2019-02-12T11:49:33.594Z,46.07
2019-02-12T11:52:14.727Z,44.00
2019-02-12T11:54:55.875Z,39.83
2019-02-12T11:57:37.086Z,40.83
2019-02-12T12:00:22.684Z,34.53
2019-02-12T12:03:04.100Z,42.70
2019-02-12T12:05:45.254Z,39.53
2019-02-12T12:08:26.562Z,40.20
2019-02-12T12:11:07.822Z,37.33
2019-02-12T12:13:48.640Z,28.87
2019-02-12T12:16:28.360Z,37.20
2019-02-12T12:19:09.896Z,36.20
2019-02-12T12:21:51.049Z,34.27
2019-02-12T12:24:32.361Z,34.67
2019-02-12T12:27:13.436Z,30.73
2019-02-12T12:29:54.208Z,34.70
2019-02-12T12:32:35.245Z,32.67
2019-02-12T12:35:15.166Z,29.13
2019-02-12T12:38:03.755Z,32.10
2019-02-12T12:40:45.185Z,28.63
2019-02-12T12:43:26.857Z,31.17
2019-02-12T12:46:08.388Z,31.37
2019-02-12T12:48:50.039Z,29.10
2019-02-12T12:51:31.142Z,21.03
2019-02-12T12:54:12.420Z,28.60
2019-02-12T12:56:53.959Z,34.73
2019-02-12T12:59:35.391Z,35.10
2019-02-12T13:02:16.387Z,34.23
2019-02-12T13:04:57.009Z,34.50
2019-02-12T13:07:38.491Z,28.30
2019-02-12T13:10:19.368Z,35.27
2019-02-12T13:13:00.549Z,35.27
2019-02-12T13:15:30.064Z,38.10
2019-02-12T13:18:18.596Z,37.43
2019-02-12T13:26:48.529Z,38.30
2019-02-12T13:29:29.754Z,35.63
2019-02-12T13:32:10.611Z,38.10
2019-02-12T13:34:52.179Z,30.97
2019-02-12T13:37:33.454Z,36.87
2019-02-12T13:40:14.141Z,32.50
2019-02-12T13:42:54.929Z,32.87
2019-02-12T13:45:36.287Z,33.00
2019-02-12T13:48:17.739Z,33.57
2019-02-12T13:50:59.187Z,36.40
2019-02-12T13:53:40.555Z,33.20
2019-02-12T13:56:22.147Z,36.40
2019-02-12T13:59:02.138Z,31.33
2019-02-12T14:04:50.620Z,30.93
2019-02-12T14:07:32.073Z,31.77
2019-02-12T14:10:12.847Z,34.23
2019-02-12T14:12:53.540Z,34.70
2019-02-12T14:15:34.950Z,33.43
2019-02-12T14:18:16.528Z,32.40
2019-02-12T14:20:58.150Z,34.80
2019-02-12T14:23:37.736Z,36.27
2019-02-12T14:26:18.894Z,36.77
2019-02-12T14:28:58.539Z,36.53
2019-02-12T14:31:39.328Z,37.60
2019-02-12T14:34:20.867Z,36.33
2019-02-12T14:37:02.286Z,31.20
2019-02-12T14:39:43.447Z,31.87
2019-02-12T14:42:24.856Z,37.17
2019-02-12T14:45:06.385Z,36.37
2019-02-12T14:47:47.588Z,35.97
2019-02-12T14:50:29.041Z,33.70
2019-02-12T14:53:09.748Z,33.67
2019-02-12T14:55:51.123Z,37.27
2019-02-12T14:58:30.790Z,37.07
2019-02-12T15:01:12.498Z,34.63
2019-02-12T15:03:54.011Z,32.90
2019-02-12T15:06:35.189Z,30.37
2019-02-12T15:09:16.356Z,31.43
2019-02-12T15:11:57.794Z,30.40
2019-02-12T15:14:39.162Z,31.57
2019-02-12T15:17:20.653Z,29.83
2019-02-12T15:20:01.789Z,31.87
2019-02-12T15:22:42.711Z,29.73
2019-02-12T15:25:24.238Z,29.03
2019-02-12T15:28:04.578Z,25.87
2019-02-12T15:30:45.992Z,25.63
2019-02-12T15:33:27.440Z,29.43
2019-02-12T15:36:09.176Z,26.43
2019-02-12T15:38:50.663Z,24.30
2019-02-12T15:41:32.062Z,30.30
2019-02-12T15:44:13.089Z,25.00
2019-02-12T15:46:54.489Z,25.47
2019-02-12T15:49:35.239Z,24.50
2019-02-12T15:52:16.616Z,24.00
2019-02-12T15:54:57.859Z,23.53
2019-02-12T15:57:40.594Z,25.83
2019-02-12T16:00:21.650Z,23.43
2019-02-12T16:03:03.000Z,25.10
2019-02-12T16:05:44.243Z,27.50
2019-02-12T16:08:25.668Z,26.67
2019-02-12T16:11:06.921Z,26.23
2019-02-12T16:13:48.420Z,30.13
2019-02-12T16:16:29.648Z,29.53
2019-02-12T16:19:11.393Z,30.90
2019-02-12T17:21:36.437Z,54.03
2019-02-12T17:24:16.469Z,54.73
2019-02-12T17:26:56.663Z,52.47
2019-02-12T17:29:36.618Z,59.53
2019-02-12T17:32:16.840Z,57.00
2019-02-12T17:35:01.407Z,55.70
2019-02-12T17:37:37.367Z,56.67
2019-02-12T17:40:17.652Z,57.63
2019-02-12T17:42:56.201Z,59.23
2019-02-12T17:45:36.309Z,59.90
2019-02-12T17:48:16.590Z,61.57
2019-02-12T17:50:56.937Z,62.27
2019-02-12T17:53:37.277Z,66.57
2019-02-12T17:56:24.733Z,64.33
2019-02-12T17:58:58.001Z,67.03
2019-02-12T18:01:37.116Z,69.33
2019-02-12T20:44:55.335Z,80.33
2019-02-12T20:47:35.639Z,82.70
2019-02-12T20:50:15.772Z,84.50
2019-02-12T20:52:56.096Z,76.13
2019-02-12T20:55:36.286Z,75.70
2019-02-12T20:58:16.389Z,73.47
2019-02-12T21:00:56.626Z,65.87
2019-02-12T21:03:37.054Z,74.00
2019-02-12T21:06:17.221Z,66.73
2019-02-12T21:08:57.332Z,68.07
2019-02-12T21:11:37.661Z,72.83
2019-02-12T21:14:17.934Z,64.37
2019-02-12T21:16:57.950Z,66.97
2019-02-12T21:19:38.137Z,68.70
2019-02-12T21:22:18.436Z,67.10
2019-02-12T21:24:58.592Z,68.53
2019-02-12T21:27:38.849Z,61.43
2019-02-12T21:30:19.053Z,68.37
2019-02-12T21:32:59.340Z,60.37
2019-02-12T21:35:39.523Z,57.20
2019-02-12T21:38:20.039Z,46.73
2019-02-12T21:40:58.717Z,41.33
